sensor_id;sensor_type;location;lat;lon;timestamp;pressure;altitude;pressure_sealevel;temperature;humidity
2675;BME280;1347;42.122;24.746;2023-01-10T00:00:04;99243.69;;;4.22;100.00
2675;BME280;1347;42.122;24.746;2023-01-10T00:02:32;99223.72;;;4.26;100.00
2675;BME280;1347;42.122;24.746;2023-01-10T00:04:59;99235.22;;;4.23;100.00
2675;BME280;1347;42.122;24.746;2023-01-10T00:07:25;99214.88;;;4.17;100.00
2675;BME280;1347;42.122;24.746;2023-01-10T00:09:52;99217.59;;;4.17;100.00
2675;BME280;1347;42.122;24.746;2023-01-10T00:12:19;99213.28;;;4.16;100.00
2675;BME280;1347;42.122;24.746;2023-01-10T00:15:06;99215.91;;;4.25;100.00
2675;BME280;1347;42.122;24.746;2023-01-10T00:17:33;99205.97;;;4.29;100.00
2675;BME280;1347;42.122;24.746;2023-01-10T00:20:00;99205.75;;;4.34;100.00
2675;BME280;1347;42.122;24.746;2023-01-10T00:22:27;99199.75;;;4.28;100.00
2675;BME280;1347;42.122;24.746;2023-01-10T00:24:54;99203.34;;;4.20;100.00
2675;BME280;1347;42.122;24.746;2023-01-10T00:27:21;99184.34;;;4.20;100.00
2675;BME280;1347;42.122;24.746;2023-01-10T00:29:48;99180.50;;;4.21;100.00
2675;BME280;1347;42.122;24.746;2023-01-10T00:32:18;99175.31;;;4.16;100.00
2675;BME280;1347;42.122;24.746;2023-01-10T00:34:45;99168.97;;;4.12;100.00
2675;BME280;1347;42.122;24.746;2023-01-10T00:37:12;99163.66;;;4.16;100.00
2675;BME280;1347;42.122;24.746;2023-01-10T00:39:39;99177.78;;;4.21;100.00
2675;BME280;1347;42.122;24.746;2023-01-10T00:42:08;99165.06;;;4.34;100.00
2675;BME280;1347;42.122;24.746;2023-01-10T00:44:52;99171.63;;;4.45;100.00
2675;BME280;1347;42.122;24.746;2023-01-10T00:47:21;99176.03;;;4.50;100.00
2675;BME280;1347;42.122;24.746;2023-01-10T00:49:48;99179.75;;;4.33;100.00
2675;BME280;1347;42.122;24.746;2023-01-10T00:52:15;99167.41;;;4.23;100.00
2675;BME280;1347;42.122;24.746;2023-01-10T00:54:41;99170.91;;;4.24;100.00
2675;BME280;1347;42.122;24.746;2023-01-10T00:57:08;99164.59;;;4.32;100.00
2675;BME280;1347;42.122;24.746;2023-01-10T00:59:35;99166.22;;;4.45;100.00
2675;BME280;1347;42.122;24.746;2023-01-10T01:02:02;99161.59;;;4.58;100.00
2675;BME280;1347;42.122;24.746;2023-01-10T01:04:31;99162.94;;;4.64;100.00
2675;BME280;1347;42.122;24.746;2023-01-10T01:06:59;99147.34;;;4.73;100.00
2675;BME280;1347;42.122;24.746;2023-01-10T01:09:26;99164.19;;;4.78;100.00
2675;BME280;1347;42.122;24.746;2023-01-10T01:11:53;99153.09;;;4.84;100.00
2675;BME280;1347;42.122;24.746;2023-01-10T01:14:21;99156.38;;;4.89;100.00
2675;BME280;1347;42.122;24.746;2023-01-10T01:16:48;99165.56;;;4.97;100.00
2675;BME280;1347;42.122;24.746;2023-01-10T01:19:15;99154.34;;;4.98;100.00
2675;BME280;1347;42.122;24.746;2023-01-10T01:21:44;99154.44;;;5.02;100.00
2675;BME280;1347;42.122;24.746;2023-01-10T01:24:11;99157.63;;;5.04;100.00
2675;BME280;1347;42.122;24.746;2023-01-10T01:26:38;99157.94;;;5.14;100.00
2675;BME280;1347;42.122;24.746;2023-01-10T01:29:07;99146.22;;;4.98;100.00
2675;BME280;1347;42.122;24.746;2023-01-10T01:31:34;99155.56;;;5.01;100.00
2675;BME280;1347;42.122;24.746;2023-01-10T01:34:01;99165.44;;;5.05;100.00
2675;BME280;1347;42.122;24.746;2023-01-10T01:36:28;99150.38;;;5.08;100.00
2675;BME280;1347;42.122;24.746;2023-01-10T01:38:56;99146.28;;;5.14;100.00
2675;BME280;1347;42.122;24.746;2023-01-10T01:41:23;99134.97;;;5.12;100.00
2675;BME280;1347;42.122;24.746;2023-01-10T01:44:14;99148.22;;;5.13;100.00
2675;BME280;1347;42.122;24.746;2023-01-10T01:46:44;99123.88;;;5.05;100.00
2675;BME280;1347;42.122;24.746;2023-01-10T01:49:15;99109.66;;;4.84;100.00
2675;BME280;1347;42.122;24.746;2023-01-10T01:51:45;99099.59;;;4.35;100.00
2675;BME280;1347;42.122;24.746;2023-01-10T01:54:15;99100.28;;;4.44;100.00
2675;BME280;1347;42.122;24.746;2023-01-10T01:56:46;99099.59;;;4.35;100.00
2675;BME280;1347;42.122;24.746;2023-01-10T01:59:19;99114.19;;;4.43;100.00
2675;BME280;1347;42.122;24.746;2023-01-10T02:01:49;99101.97;;;4.49;100.00
2675;BME280;1347;42.122;24.746;2023-01-10T02:04:20;99094.28;;;4.51;100.00
2675;BME280;1347;42.122;24.746;2023-01-10T02:06:50;99078.47;;;4.53;100.00
2675;BME280;1347;42.122;24.746;2023-01-10T02:09:23;99067.28;;;4.55;100.00
2675;BME280;1347;42.122;24.746;2023-01-10T02:11:51;99068.72;;;4.64;100.00
2675;BME280;1347;42.122;24.746;2023-01-10T02:14:19;99059.91;;;4.67;100.00
2675;BME280;1347;42.122;24.746;2023-01-10T02:16:47;99057.63;;;4.69;100.00
2675;BME280;1347;42.122;24.746;2023-01-10T02:19:21;99062.63;;;4.67;100.00
2675;BME280;1347;42.122;24.746;2023-01-10T02:22:23;99064.97;;;4.69;100.00
2675;BME280;1347;42.122;24.746;2023-01-10T02:25:35;99052.44;;;4.76;100.00
2675;BME280;1347;42.122;24.746;2023-01-10T02:31:28;99022.69;;;4.68;100.00
2675;BME280;1347;42.122;24.746;2023-01-10T02:34:05;98992.06;;;4.55;100.00
2675;BME280;1347;42.122;24.746;2023-01-10T02:36:40;99009.59;;;4.58;100.00
2675;BME280;1347;42.122;24.746;2023-01-10T02:39:15;99037.06;;;4.56;100.00
2675;BME280;1347;42.122;24.746;2023-01-10T02:41:47;99042.84;;;4.67;100.00
2675;BME280;1347;42.122;24.746;2023-01-10T02:44:22;99035.25;;;4.60;100.00
2675;BME280;1347;42.122;24.746;2023-01-10T02:46:50;99039.88;;;4.72;100.00
2675;BME280;1347;42.122;24.746;2023-01-10T02:49:19;99041.22;;;4.78;100.00
2675;BME280;1347;42.122;24.746;2023-01-10T02:51:45;99029.25;;;4.67;100.00
2675;BME280;1347;42.122;24.746;2023-01-10T02:54:15;99034.44;;;4.60;100.00
2675;BME280;1347;42.122;24.746;2023-01-10T02:57:02;99026.56;;;4.55;100.00
2675;BME280;1347;42.122;24.746;2023-01-10T02:59:44;99024.31;;;4.57;100.00
2675;BME280;1347;42.122;24.746;2023-01-10T03:02:20;99022.59;;;4.64;100.00
2675;BME280;1347;42.122;24.746;2023-01-10T03:04:58;99018.59;;;4.74;100.00
2675;BME280;1347;42.122;24.746;2023-01-10T03:07:35;99028.00;;;4.76;100.00
2675;BME280;1347;42.122;24.746;2023-01-10T03:10:06;99030.91;;;4.84;100.00
2675;BME280;1347;42.122;24.746;2023-01-10T03:12:41;99031.81;;;4.88;100.00
2675;BME280;1347;42.122;24.746;2023-01-10T03:15:12;99026.03;;;4.89;100.00
2675;BME280;1347;42.122;24.746;2023-01-10T03:17:41;99027.84;;;4.97;100.00
2675;BME280;1347;42.122;24.746;2023-01-10T03:20:12;99017.50;;;5.03;100.00
2675;BME280;1347;42.122;24.746;2023-01-10T03:22:41;99008.72;;;4.94;100.00
2675;BME280;1347;42.122;24.746;2023-01-10T03:25:10;98998.53;;;4.91;100.00
2675;BME280;1347;42.122;24.746;2023-01-10T03:27:45;99013.88;;;4.99;100.00
2675;BME280;1347;42.122;24.746;2023-01-10T03:30:18;99015.56;;;5.03;100.00
2675;BME280;1347;42.122;24.746;2023-01-10T03:32:50;99020.00;;;5.08;100.00
2675;BME280;1347;42.122;24.746;2023-01-10T03:35:19;99000.19;;;5.07;100.00
2675;BME280;1347;42.122;24.746;2023-01-10T03:37:53;98991.31;;;5.10;100.00
2675;BME280;1347;42.122;24.746;2023-01-10T03:40:27;98984.53;;;5.16;100.00
2675;BME280;1347;42.122;24.746;2023-01-10T03:43:00;98991.31;;;5.10;100.00
2675;BME280;1347;42.122;24.746;2023-01-10T03:45:52;98982.94;;;4.88;100.00
2675;BME280;1347;42.122;24.746;2023-01-10T03:48:22;98983.59;;;4.97;100.00
2675;BME280;1347;42.122;24.746;2023-01-10T03:50:55;98985.59;;;5.00;100.00
2675;BME280;1347;42.122;24.746;2023-01-10T03:53:23;98985.34;;;5.05;100.00
2675;BME280;1347;42.122;24.746;2023-01-10T03:55:50;98954.69;;;5.04;100.00
2675;BME280;1347;42.122;24.746;2023-01-10T03:58:17;98954.44;;;5.09;100.00
2675;BME280;1347;42.122;24.746;2023-01-10T04:00:46;98955.59;;;5.08;100.00
2675;BME280;1347;42.122;24.746;2023-01-10T04:03:13;98935.41;;;5.09;100.00
2675;BME280;1347;42.122;24.746;2023-01-10T04:05:41;98923.16;;;5.15;100.00
2675;BME280;1347;42.122;24.746;2023-01-10T04:08:09;98922.91;;;5.21;100.00
2675;BME280;1347;42.122;24.746;2023-01-10T04:10:36;98933.59;;;5.13;100.00
2675;BME280;1347;42.122;24.746;2023-01-10T04:13:04;98923.00;;;5.08;100.00
2675;BME280;1347;42.122;24.746;2023-01-10T04:15:31;98936.41;;;4.89;100.00
2675;BME280;1347;42.122;24.746;2023-01-10T04:17:58;98945.13;;;4.55;100.00
2675;BME280;1347;42.122;24.746;2023-01-10T04:20:25;98945.09;;;4.67;100.00
2675;BME280;1347;42.122;24.746;2023-01-10T04:22:52;98951.19;;;4.76;100.00
2675;BME280;1347;42.122;24.746;2023-01-10T04:25:21;98962.84;;;4.76;100.00
2675;BME280;1347;42.122;24.746;2023-01-10T04:27:48;98960.84;;;4.89;100.00
2675;BME280;1347;42.122;24.746;2023-01-10T04:30:16;98945.34;;;4.90;100.00
2675;BME280;1347;42.122;24.746;2023-01-10T04:32:43;98931.53;;;4.95;100.00
2675;BME280;1347;42.122;24.746;2023-01-10T04:35:10;98930.94;;;5.01;100.00
2675;BME280;1347;42.122;24.746;2023-01-10T04:37:37;98942.84;;;4.97;100.00
2675;BME280;1347;42.122;24.746;2023-01-10T04:40:05;98932.41;;;4.99;100.00
2675;BME280;1347;42.122;24.746;2023-01-10T04:42:34;98937.16;;;5.02;100.00
2675;BME280;1347;42.122;24.746;2023-01-10T04:45:01;98944.63;;;5.05;100.00
2675;BME280;1347;42.122;24.746;2023-01-10T04:47:27;98949.94;;;5.01;100.00
2675;BME280;1347;42.122;24.746;2023-01-10T04:49:54;98948.06;;;4.90;100.00
2675;BME280;1347;42.122;24.746;2023-01-10T04:52:21;98942.75;;;4.93;100.00
2675;BME280;1347;42.122;24.746;2023-01-10T04:54:50;98937.75;;;4.95;100.00
2675;BME280;1347;42.122;24.746;2023-01-10T04:57:17;98937.19;;;4.90;100.00
2675;BME280;1347;42.122;24.746;2023-01-10T04:59:45;98936.84;;;4.91;100.00
2675;BME280;1347;42.122;24.746;2023-01-10T05:02:12;98931.19;;;4.96;100.00
2675;BME280;1347;42.122;24.746;2023-01-10T05:04:39;98922.97;;;4.80;100.00
2675;BME280;1347;42.122;24.746;2023-01-10T05:07:06;98914.75;;;4.77;100.00
2675;BME280;1347;42.122;24.746;2023-01-10T05:09:33;98916.06;;;4.83;100.00
2675;BME280;1347;42.122;24.746;2023-01-10T05:12:00;98918.00;;;4.82;100.00
2675;BME280;1347;42.122;24.746;2023-01-10T05:14:27;98926.41;;;4.77;100.00
2675;BME280;1347;42.122;24.746;2023-01-10T05:16:55;98921.78;;;4.78;100.00
2675;BME280;1347;42.122;24.746;2023-01-10T05:19:22;98911.44;;;4.84;100.00
2675;BME280;1347;42.122;24.746;2023-01-10T05:21:49;98911.94;;;4.73;100.00
2675;BME280;1347;42.122;24.746;2023-01-10T05:24:16;98913.25;;;4.79;100.00
2675;BME280;1347;42.122;24.746;2023-01-10T05:26:43;98918.69;;;4.79;100.00
2675;BME280;1347;42.122;24.746;2023-01-10T05:29:10;98910.81;;;4.74;100.00
2675;BME280;1347;42.122;24.746;2023-01-10T05:31:39;98899.16;;;4.74;100.00
2675;BME280;1347;42.122;24.746;2023-01-10T05:34:10;98886.38;;;4.74;100.00
2675;BME280;1347;42.122;24.746;2023-01-10T05:36:37;98885.22;;;4.75;100.00
2675;BME280;1347;42.122;24.746;2023-01-10T05:39:04;98878.22;;;4.74;100.00
2675;BME280;1347;42.122;24.746;2023-01-10T05:41:31;98872.78;;;4.74;100.00
2675;BME280;1347;42.122;24.746;2023-01-10T05:43:58;98878.75;;;4.80;100.00
2675;BME280;1347;42.122;24.746;2023-01-10T05:46:25;98879.09;;;4.78;100.00
2675;BME280;1347;42.122;24.746;2023-01-10T05:48:52;98882.53;;;4.75;100.00
2675;BME280;1347;42.122;24.746;2023-01-10T05:51:21;98882.19;;;4.77;100.00
2675;BME280;1347;42.122;24.746;2023-01-10T05:53:48;98882.19;;;4.77;100.00
2675;BME280;1347;42.122;24.746;2023-01-10T05:56:14;98870.41;;;4.73;100.00
2675;BME280;1347;42.122;24.746;2023-01-10T05:58:42;98858.38;;;4.58;100.00
2675;BME280;1347;42.122;24.746;2023-01-10T06:01:09;98887.53;;;4.61;100.00
2675;BME280;1347;42.122;24.746;2023-01-10T06:03:36;98891.59;;;4.67;100.00
2675;BME280;1347;42.122;24.746;2023-01-10T06:06:03;98901.59;;;4.79;100.00
2675;BME280;1347;42.122;24.746;2023-01-10T06:08:31;98908.72;;;4.84;100.00
2675;BME280;1347;42.122;24.746;2023-01-10T06:11:01;98899.25;;;4.77;100.00
2675;BME280;1347;42.122;24.746;2023-01-10T06:13:28;98891.91;;;4.78;100.00
2675;BME280;1347;42.122;24.746;2023-01-10T06:15:55;98898.03;;;4.75;100.00
2675;BME280;1347;42.122;24.746;2023-01-10T06:18:23;98905.81;;;4.76;100.00
2675;BME280;1347;42.122;24.746;2023-01-10T06:20:50;98903.91;;;4.77;100.00
2675;BME280;1347;42.122;24.746;2023-01-10T06:23:17;98898.97;;;4.67;100.00
2675;BME280;1347;42.122;24.746;2023-01-10T06:25:45;98895.13;;;4.68;100.00
2675;BME280;1347;42.122;24.746;2023-01-10T06:28:12;98899.03;;;4.70;100.00
2675;BME280;1347;42.122;24.746;2023-01-10T06:30:41;98898.25;;;4.70;100.00
2675;BME280;1347;42.122;24.746;2023-01-10T06:33:10;98898.41;;;4.61;100.00
2675;BME280;1347;42.122;24.746;2023-01-10T06:35:37;98893.56;;;4.55;100.00
2675;BME280;1347;42.122;24.746;2023-01-10T06:38:04;98887.47;;;4.58;100.00
2675;BME280;1347;42.122;24.746;2023-01-10T06:40:31;98884.19;;;4.52;100.00
2675;BME280;1347;42.122;24.746;2023-01-10T06:43:00;98882.06;;;4.46;100.00
2675;BME280;1347;42.122;24.746;2023-01-10T06:45:27;98882.75;;;4.42;100.00
2675;BME280;1347;42.122;24.746;2023-01-10T06:47:54;98885.47;;;4.42;100.00
2675;BME280;1347;42.122;24.746;2023-01-10T06:50:21;98887.84;;;4.44;100.00
2675;BME280;1347;42.122;24.746;2023-01-10T06:52:54;98897.22;;;4.47;100.00
2675;BME280;1347;42.122;24.746;2023-01-10T06:55:21;98884.78;;;4.46;100.00
2675;BME280;1347;42.122;24.746;2023-01-10T06:57:52;98891.16;;;4.37;100.00
2675;BME280;1347;42.122;24.746;2023-01-10T07:00:22;98891.22;;;4.41;100.00
2675;BME280;1347;42.122;24.746;2023-01-10T07:02:50;98884.00;;;4.45;100.00
2675;BME280;1347;42.122;24.746;2023-01-10T07:05:18;98880.84;;;4.31;100.00
2675;BME280;1347;42.122;24.746;2023-01-10T07:07:45;98879.06;;;4.35;100.00
2675;BME280;1347;42.122;24.746;2023-01-10T07:10:12;98873.16;;;4.33;100.00
2675;BME280;1347;42.122;24.746;2023-01-10T07:12:39;98861.19;;;4.34;100.00
2675;BME280;1347;42.122;24.746;2023-01-10T07:15:07;98866.94;;;4.32;100.00
2675;BME280;1347;42.122;24.746;2023-01-10T07:17:36;98853.28;;;4.29;100.00
2675;BME280;1347;42.122;24.746;2023-01-10T07:20:03;98858.34;;;4.30;100.00
2675;BME280;1347;42.122;24.746;2023-01-10T07:22:30;98868.66;;;4.37;100.00
2675;BME280;1347;42.122;24.746;2023-01-10T07:24:57;98863.56;;;4.35;100.00
2675;BME280;1347;42.122;24.746;2023-01-10T07:27:24;98854.63;;;4.35;100.00
2675;BME280;1347;42.122;24.746;2023-01-10T07:29:51;98848.06;;;4.36;100.00
2675;BME280;1347;42.122;24.746;2023-01-10T07:32:18;98835.72;;;4.38;100.00
2675;BME280;1347;42.122;24.746;2023-01-10T07:34:46;98836.00;;;4.49;100.00
2675;BME280;1347;42.122;24.746;2023-01-10T07:37:13;98826.66;;;4.47;100.00
2675;BME280;1347;42.122;24.746;2023-01-10T07:39:40;98830.97;;;4.48;100.00
2675;BME280;1347;42.122;24.746;2023-01-10T07:42:08;98815.38;;;4.44;100.00
2675;BME280;1347;42.122;24.746;2023-01-10T07:44:35;98817.63;;;4.42;100.00
2675;BME280;1347;42.122;24.746;2023-01-10T07:47:02;98821.72;;;4.36;100.00
2675;BME280;1347;42.122;24.746;2023-01-10T07:49:28;98818.91;;;4.33;100.00
2675;BME280;1347;42.122;24.746;2023-01-10T07:51:57;98820.50;;;4.34;100.00
2675;BME280;1347;42.122;24.746;2023-01-10T07:54:24;98819.25;;;4.31;100.00
2675;BME280;1347;42.122;24.746;2023-01-10T07:56:51;98805.78;;;4.35;100.00
2675;BME280;1347;42.122;24.746;2023-01-10T07:59:18;98809.19;;;4.32;100.00
2675;BME280;1347;42.122;24.746;2023-01-10T08:01:45;98800.16;;;4.28;100.00
2675;BME280;1347;42.122;24.746;2023-01-10T08:04:12;98796.06;;;4.34;100.00
2675;BME280;1347;42.122;24.746;2023-01-10T08:06:39;98788.38;;;4.36;100.00
2675;BME280;1347;42.122;24.746;2023-01-10T08:09:08;98783.75;;;4.36;100.00
2675;BME280;1347;42.122;24.746;2023-01-10T08:11:35;98782.50;;;4.34;100.00
2675;BME280;1347;42.122;24.746;2023-01-10T08:14:02;98782.97;;;4.36;100.00
2675;BME280;1347;42.122;24.746;2023-01-10T08:16:29;98778.56;;;4.31;100.00
2675;BME280;1347;42.122;24.746;2023-01-10T08:18:56;98773.72;;;4.25;100.00
2675;BME280;1347;42.122;24.746;2023-01-10T08:21:23;98787.28;;;4.25;100.00
2675;BME280;1347;42.122;24.746;2023-01-10T08:23:50;98789.75;;;4.30;100.00
2675;BME280;1347;42.122;24.746;2023-01-10T08:26:18;98803.53;;;4.37;100.00
2675;BME280;1347;42.122;24.746;2023-01-10T08:28:45;98798.97;;;4.41;100.00
2675;BME280;1347;42.122;24.746;2023-01-10T08:31:12;98783.47;;;4.41;100.00
2675;BME280;1347;42.122;24.746;2023-01-10T08:33:40;98787.00;;;4.42;100.00
2675;BME280;1347;42.122;24.746;2023-01-10T08:36:14;98771.25;;;4.48;100.00
2675;BME280;1347;42.122;24.746;2023-01-10T08:38:41;98757.94;;;4.58;100.00
2675;BME280;1347;42.122;24.746;2023-01-10T08:41:08;98761.09;;;4.60;100.00
2675;BME280;1347;42.122;24.746;2023-01-10T08:43:37;98756.03;;;4.59;100.00
2675;BME280;1347;42.122;24.746;2023-01-10T08:46:05;98753.06;;;4.64;100.00
2675;BME280;1347;42.122;24.746;2023-01-10T08:48:32;98751.25;;;4.68;100.00
2675;BME280;1347;42.122;24.746;2023-01-10T08:51:04;98755.50;;;4.69;100.00
2675;BME280;1347;42.122;24.746;2023-01-10T08:53:31;98745.38;;;4.66;100.00
2675;BME280;1347;42.122;24.746;2023-01-10T08:55:58;98754.03;;;4.71;100.00
2675;BME280;1347;42.122;24.746;2023-01-10T08:58:25;98745.28;;;4.78;100.00
2675;BME280;1347;42.122;24.746;2023-01-10T09:00:54;98757.13;;;4.86;100.00
2675;BME280;1347;42.122;24.746;2023-01-10T09:03:21;98751.41;;;4.91;100.00
2675;BME280;1347;42.122;24.746;2023-01-10T09:05:48;98737.84;;;4.91;100.00
2675;BME280;1347;42.122;24.746;2023-01-10T09:08:15;98730.47;;;4.91;100.00
2675;BME280;1347;42.122;24.746;2023-01-10T09:10:42;98726.09;;;4.87;100.00
2675;BME280;1347;42.122;24.746;2023-01-10T09:13:09;98714.91;;;4.88;100.00
2675;BME280;1347;42.122;24.746;2023-01-10T09:15:36;98712.09;;;4.85;100.00
2675;BME280;1347;42.122;24.746;2023-01-10T09:18:06;98704.09;;;4.92;100.00
2675;BME280;1347;42.122;24.746;2023-01-10T09:20:34;98710.50;;;4.99;100.00
2675;BME280;1347;42.122;24.746;2023-01-10T09:23:04;98699.22;;;4.97;100.00
2675;BME280;1347;42.122;24.746;2023-01-10T09:25:33;98689.94;;;4.98;100.00
2675;BME280;1347;42.122;24.746;2023-01-10T09:28:02;98682.19;;;5.00;100.00
2675;BME280;1347;42.122;24.746;2023-01-10T09:30:30;98686.38;;;5.13;100.00
2675;BME280;1347;42.122;24.746;2023-01-10T09:32:57;98679.66;;;5.07;100.00
2675;BME280;1347;42.122;24.746;2023-01-10T09:35:27;98683.88;;;5.05;100.00
2675;BME280;1347;42.122;24.746;2023-01-10T09:37:55;98670.91;;;4.98;100.00
2675;BME280;1347;42.122;24.746;2023-01-10T09:40:31;98653.41;;;4.96;100.00
2675;BME280;1347;42.122;24.746;2023-01-10T09:43:07;98643.22;;;5.08;100.00
2675;BME280;1347;42.122;24.746;2023-01-10T09:45:41;98635.22;;;5.15;100.00
2675;BME280;1347;42.122;24.746;2023-01-10T09:48:15;98641.78;;;5.14;100.00
2675;BME280;1347;42.122;24.746;2023-01-10T09:50:59;98636.69;;;5.13;100.00
2675;BME280;1347;42.122;24.746;2023-01-10T09:53:31;98633.34;;;5.19;100.00
2675;BME280;1347;42.122;24.746;2023-01-10T09:56:00;98632.38;;;5.28;100.00
2675;BME280;1347;42.122;24.746;2023-01-10T09:58:30;98622.72;;;5.30;100.00
2675;BME280;1347;42.122;24.746;2023-01-10T10:01:03;98624.06;;;5.40;100.00
2675;BME280;1347;42.122;24.746;2023-01-10T10:03:35;98607.00;;;5.39;100.00
2675;BME280;1347;42.122;24.746;2023-01-10T10:06:08;98614.63;;;5.34;100.00
2675;BME280;1347;42.122;24.746;2023-01-10T10:08:36;98607.19;;;5.31;100.00
2675;BME280;1347;42.122;24.746;2023-01-10T10:11:16;98616.78;;;5.25;100.00
2675;BME280;1347;42.122;24.746;2023-01-10T10:13:55;98609.84;;;5.27;100.00
2675;BME280;1347;42.122;24.746;2023-01-10T10:16:34;98604.47;;;5.31;100.00
2675;BME280;1347;42.122;24.746;2023-01-10T10:19:12;98604.69;;;5.22;100.00
2675;BME280;1347;42.122;24.746;2023-01-10T10:21:48;98589.88;;;5.19;100.00
2675;BME280;1347;42.122;24.746;2023-01-10T10:24:32;98575.31;;;5.28;100.00
2675;BME280;1347;42.122;24.746;2023-01-10T10:27:10;98569.94;;;5.31;100.00
2675;BME280;1347;42.122;24.746;2023-01-10T10:32:49;98562.31;;;5.37;100.00
2675;BME280;1347;42.122;24.746;2023-01-10T10:35:25;98552.22;;;5.37;100.00
2675;BME280;1347;42.122;24.746;2023-01-10T10:37:57;98545.22;;;5.36;100.00
2675;BME280;1347;42.122;24.746;2023-01-10T10:40:31;98537.34;;;5.31;100.00
2675;BME280;1347;42.122;24.746;2023-01-10T10:43:10;98536.19;;;5.32;100.00
2675;BME280;1347;42.122;24.746;2023-01-10T10:45:43;98514.19;;;5.37;100.00
2675;BME280;1347;42.122;24.746;2023-01-10T10:48:15;98505.66;;;5.39;100.00
2675;BME280;1347;42.122;24.746;2023-01-10T10:50:54;98506.50;;;5.43;100.00
2675;BME280;1347;42.122;24.746;2023-01-10T10:53:25;98510.81;;;5.44;100.00
2675;BME280;1347;42.122;24.746;2023-01-10T10:55:52;98519.75;;;5.44;100.00
2675;BME280;1347;42.122;24.746;2023-01-10T10:58:19;98510.09;;;5.47;100.00
2675;BME280;1347;42.122;24.746;2023-01-10T11:00:46;98518.25;;;5.47;100.00
2675;BME280;1347;42.122;24.746;2023-01-10T11:03:24;98510.94;;;5.51;100.00
2675;BME280;1347;42.122;24.746;2023-01-10T11:05:53;98515.66;;;5.54;100.00
2675;BME280;1347;42.122;24.746;2023-01-10T11:08:20;98507.56;;;5.58;100.00
2675;BME280;1347;42.122;24.746;2023-01-10T11:10:52;98496.38;;;5.63;100.00
2675;BME280;1347;42.122;24.746;2023-01-10T11:13:26;98474.28;;;5.64;100.00
2675;BME280;1347;42.122;24.746;2023-01-10T11:15:55;98480.06;;;5.63;100.00
2675;BME280;1347;42.122;24.746;2023-01-10T11:18:24;98480.16;;;5.66;100.00
2675;BME280;1347;42.122;24.746;2023-01-10T11:20:53;98470.84;;;5.67;100.00
2675;BME280;1347;42.122;24.746;2023-01-10T11:23:30;98447.03;;;5.61;100.00
2675;BME280;1347;42.122;24.746;2023-01-10T11:26:00;98439.06;;;5.71;100.00
2675;BME280;1347;42.122;24.746;2023-01-10T11:28:29;98452.00;;;5.78;100.00
2675;BME280;1347;42.122;24.746;2023-01-10T11:30:57;98457.44;;;5.78;100.00
2675;BME280;1347;42.122;24.746;2023-01-10T11:33:27;98469.81;;;5.75;100.00
2675;BME280;1347;42.122;24.746;2023-01-10T11:35:58;98464.44;;;5.79;100.00
2675;BME280;1347;42.122;24.746;2023-01-10T11:38:26;98460.97;;;5.82;100.00
2675;BME280;1347;42.122;24.746;2023-01-10T11:40:57;98455.44;;;5.75;100.00
2675;BME280;1347;42.122;24.746;2023-01-10T11:43:28;98460.25;;;5.62;100.00
2675;BME280;1347;42.122;24.746;2023-01-10T11:45:58;98442.44;;;5.65;100.00
2675;BME280;1347;42.122;24.746;2023-01-10T11:48:38;98438.03;;;5.79;100.00
2675;BME280;1347;42.122;24.746;2023-01-10T11:51:15;98436.56;;;5.85;100.00
2675;BME280;1347;42.122;24.746;2023-01-10T11:53:43;98439.38;;;5.89;100.00
2675;BME280;1347;42.122;24.746;2023-01-10T11:56:14;98444.16;;;5.96;100.00
2675;BME280;1347;42.122;24.746;2023-01-10T11:58:49;98444.59;;;6.01;100.00
2675;BME280;1347;42.122;24.746;2023-01-10T12:01:38;98444.41;;;6.13;100.00
2675;BME280;1347;42.122;24.746;2023-01-10T12:04:13;98436.03;;;6.25;100.00
2675;BME280;1347;42.122;24.746;2023-01-10T12:06:42;98434.19;;;6.33;100.00
2675;BME280;1347;42.122;24.746;2023-01-10T12:09:35;98436.19;;;6.36;100.00
2675;BME280;1347;42.122;24.746;2023-01-10T12:12:09;98447.00;;;6.29;100.00
2675;BME280;1347;42.122;24.746;2023-01-10T12:14:41;98441.22;;;6.34;100.00
2675;BME280;1347;42.122;24.746;2023-01-10T12:17:10;98433.94;;;6.42;100.00
2675;BME280;1347;42.122;24.746;2023-01-10T12:19:43;98432.53;;;6.51;100.00
2675;BME280;1347;42.122;24.746;2023-01-10T12:22:13;98448.47;;;6.53;100.00
2675;BME280;1347;42.122;24.746;2023-01-10T12:24:43;98463.28;;;6.55;100.00
2675;BME280;1347;42.122;24.746;2023-01-10T12:27:12;98474.38;;;6.40;100.00
2675;BME280;1347;42.122;24.746;2023-01-10T12:29:45;98475.78;;;6.30;100.00
2675;BME280;1347;42.122;24.746;2023-01-10T12:32:17;98481.75;;;6.39;100.00
2675;BME280;1347;42.122;24.746;2023-01-10T12:34:51;98479.38;;;6.38;100.00
2675;BME280;1347;42.122;24.746;2023-01-10T12:37:24;98481.06;;;6.19;100.00
2675;BME280;1347;42.122;24.746;2023-01-10T12:39:58;98465.25;;;6.28;100.00
2675;BME280;1347;42.122;24.746;2023-01-10T12:42:36;98467.97;;;6.28;100.00
2675;BME280;1347;42.122;24.746;2023-01-10T12:45:32;98448.06;;;6.24;100.00
2675;BME280;1347;42.122;24.746;2023-01-10T12:48:06;98435.03;;;6.37;100.00
2675;BME280;1347;42.122;24.746;2023-01-10T12:50:40;98418.13;;;6.51;100.00
2675;BME280;1347;42.122;24.746;2023-01-10T12:53:17;98421.00;;;6.61;100.00
2675;BME280;1347;42.122;24.746;2023-01-10T12:55:48;98417.06;;;6.59;100.00
2675;BME280;1347;42.122;24.746;2023-01-10T12:58:20;98420.66;;;6.67;100.00
2675;BME280;1347;42.122;24.746;2023-01-10T13:00:51;98428.47;;;6.68;100.00
2675;BME280;1347;42.122;24.746;2023-01-10T13:03:21;98417.19;;;6.70;100.00
2675;BME280;1347;42.122;24.746;2023-01-10T13:05:50;98408.69;;;6.75;100.00
2675;BME280;1347;42.122;24.746;2023-01-10T13:08:22;98436.47;;;6.87;100.00
2675;BME280;1347;42.122;24.746;2023-01-10T13:10:52;98466.44;;;6.87;100.00
2675;BME280;1347;42.122;24.746;2023-01-10T13:13:23;98468.06;;;6.92;100.00
2675;BME280;1347;42.122;24.746;2023-01-10T13:16:03;98451.75;;;6.95;100.00
2675;BME280;1347;42.122;24.746;2023-01-10T13:18:35;98461.97;;;7.06;100.00
2675;BME280;1347;42.122;24.746;2023-01-10T13:21:03;98455.25;;;6.96;100.00
2675;BME280;1347;42.122;24.746;2023-01-10T13:23:34;98433.56;;;7.07;100.00
2675;BME280;1347;42.122;24.746;2023-01-10T13:26:06;98419.16;;;7.06;100.00
2675;BME280;1347;42.122;24.746;2023-01-10T13:28:36;98413.88;;;7.20;100.00
2675;BME280;1347;42.122;24.746;2023-01-10T13:31:07;98406.28;;;7.40;100.00